createdAt,value
2019-02-20T00:03:35.010Z,5.70
2019-02-20T00:08:39.779Z,6.53
2019-02-20T00:13:44.623Z,6.87
2019-02-20T00:18:48.889Z,6.37
2019-02-20T00:23:53.002Z,6.70
2019-02-20T00:28:57.141Z,6.40
2019-02-20T00:34:01.252Z,6.17
2019-02-20T00:39:07.808Z,5.23
2019-02-20T00:44:34.389Z,6.53
2019-02-20T00:49:42.209Z,7.30
2019-02-20T00:54:46.335Z,6.53
2019-02-20T00:59:50.925Z,8.63
2019-02-20T01:04:55.662Z,4.97
2019-02-20T01:09:59.975Z,7.20
2019-02-20T01:15:04.887Z,5.50
2019-02-20T01:20:09.875Z,6.70
2019-02-20T01:25:15.402Z,6.93
2019-02-20T01:30:20.170Z,5.40
2019-02-20T01:35:24.357Z,7.20
2019-02-20T01:40:28.404Z,5.47
2019-02-20T01:45:33.285Z,4.63
2019-02-20T01:50:37.414Z,6.93
2019-02-20T01:55:42.111Z,6.13
2019-02-20T02:00:48.426Z,4.87
2019-02-20T02:05:52.536Z,6.10
2019-02-20T02:10:56.609Z,6.50
2019-02-20T02:16:01.289Z,6.77
2019-02-20T02:21:06.071Z,7.10
2019-02-20T02:26:11.103Z,7.60
2019-02-20T02:31:15.360Z,6.40
2019-02-20T02:36:19.398Z,6.40
2019-02-20T02:41:23.604Z,7.60
2019-02-20T02:46:27.724Z,5.50
2019-02-20T02:51:32.441Z,6.60
2019-02-20T02:56:36.801Z,4.83
2019-02-20T03:01:40.994Z,7.03
2019-02-20T03:06:52.624Z,6.53
2019-02-20T03:11:57.298Z,6.13
2019-02-20T03:17:01.565Z,8.67
2019-02-20T03:22:05.645Z,6.73
2019-02-20T03:27:09.876Z,7.80
2019-02-20T03:32:14.658Z,7.13
2019-02-20T03:37:18.932Z,6.40
2019-02-20T03:42:23.273Z,6.57
2019-02-20T03:47:27.435Z,7.47
2019-02-20T03:52:31.626Z,6.17
2019-02-20T03:57:35.944Z,7.00
2019-02-20T04:02:40.272Z,7.27
2019-02-20T04:07:44.920Z,5.37
2019-02-20T04:12:49.154Z,7.43
2019-02-20T04:17:53.205Z,8.80
2019-02-20T04:22:57.314Z,7.23
2019-02-20T04:28:02.020Z,8.83
2019-02-20T04:33:06.130Z,8.63
2019-02-20T04:38:10.360Z,8.67
2019-02-20T04:43:14.472Z,9.50
2019-02-20T04:48:18.493Z,8.30
2019-02-20T04:53:22.682Z,9.50
2019-02-20T04:58:27.668Z,8.87
2019-02-20T05:03:32.378Z,9.63
2019-02-20T05:08:37.138Z,10.27
2019-02-20T05:13:41.912Z,10.13
2019-02-20T05:18:45.972Z,12.97
2019-02-20T05:23:50.684Z,9.63
2019-02-20T05:28:54.979Z,13.17
2019-02-20T05:33:59.063Z,12.70
2019-02-20T05:39:04.799Z,9.90
2019-02-20T05:44:11.790Z,10.80
2019-02-20T05:49:16.059Z,9.93
2019-02-20T05:54:20.802Z,11.37
2019-02-20T05:59:25.022Z,8.87
2019-02-20T06:04:29.685Z,10.37
2019-02-20T06:09:33.836Z,10.63
2019-02-20T06:14:42.582Z,11.43
2019-02-20T06:19:47.125Z,10.17
2019-02-20T06:24:51.286Z,11.60
2019-02-20T06:29:58.640Z,10.87
2019-02-20T06:35:03.190Z,12.27
2019-02-20T06:40:07.774Z,10.33
2019-02-20T06:45:12.541Z,11.90
2019-02-20T06:50:16.797Z,10.90
2019-02-20T06:55:20.858Z,9.80
2019-02-20T07:00:26.279Z,10.20
2019-02-20T07:05:31.241Z,9.83
2019-02-20T07:11:00.301Z,8.03
2019-02-20T07:16:23.642Z,8.77
2019-02-20T07:22:04.628Z,8.60
2019-02-20T07:27:26.316Z,9.07
2019-02-20T07:32:30.993Z,9.57
2019-02-20T07:37:35.095Z,8.43
2019-02-20T07:42:39.179Z,8.47
2019-02-20T07:47:43.828Z,9.37
2019-02-20T07:52:48.233Z,9.67
2019-02-20T07:57:54.886Z,9.63
2019-02-20T08:02:59.729Z,9.20
2019-02-20T08:08:04.069Z,7.07
2019-02-20T08:13:09.526Z,10.03
2019-02-20T08:18:13.809Z,10.80
2019-02-20T08:23:17.951Z,11.60
2019-02-20T08:28:22.837Z,10.57
2019-02-20T08:33:29.352Z,11.90
2019-02-20T08:38:33.584Z,12.20
2019-02-20T08:43:37.710Z,11.37
2019-02-20T08:48:44.673Z,11.33
2019-02-20T08:53:52.283Z,13.00
2019-02-20T08:58:56.299Z,11.53
2019-02-20T09:04:00.383Z,11.20
2019-02-20T09:09:06.309Z,11.47
2019-02-20T09:14:10.485Z,11.00
2019-02-20T09:19:14.689Z,11.27
2019-02-20T09:24:19.419Z,12.37
2019-02-20T09:29:24.218Z,8.27
2019-02-20T09:34:29.103Z,10.87
2019-02-20T09:39:35.709Z,11.43
2019-02-20T09:44:43.728Z,11.53
2019-02-20T09:49:48.662Z,11.17
2019-02-20T09:54:55.740Z,12.73
2019-02-20T10:00:00.000Z,12.70
2019-02-20T10:05:04.836Z,13.93
2019-02-20T10:10:09.906Z,12.47
2019-02-20T10:15:15.076Z,11.77
2019-02-20T10:20:19.992Z,11.63
2019-02-20T10:25:25.043Z,15.93
2019-02-20T10:30:29.972Z,16.13
2019-02-20T10:35:34.815Z,13.27
2019-02-20T10:40:39.549Z,15.83
2019-02-20T10:45:45.756Z,15.87
2019-02-20T10:50:50.528Z,15.17
2019-02-20T10:55:55.365Z,16.77
2019-02-20T11:01:00.207Z,16.47
2019-02-20T11:06:05.211Z,19.73
2019-02-20T11:11:10.095Z,17.97
2019-02-20T11:16:14.967Z,16.40
2019-02-20T11:21:20.019Z,16.33
2019-02-20T11:26:25.244Z,17.20
2019-02-20T11:31:30.102Z,14.37
2019-02-20T11:36:34.932Z,11.00
2019-02-20T11:41:40.807Z,12.63
2019-02-20T11:46:45.509Z,10.60
2019-02-20T11:51:50.344Z,9.33
2019-02-20T11:56:55.291Z,9.27
2019-02-20T12:02:00.179Z,7.93
2019-02-20T12:07:05.047Z,8.33
2019-02-20T12:12:09.855Z,7.47
2019-02-20T12:17:14.802Z,8.07
2019-02-20T12:22:19.489Z,9.27
2019-02-20T12:27:24.392Z,9.10
2019-02-20T12:32:30.898Z,7.67
2019-02-20T12:37:35.786Z,9.40
2019-02-20T12:42:41.942Z,5.83
2019-02-20T12:47:47.097Z,7.97
2019-02-20T12:52:51.967Z,7.27
2019-02-20T12:57:56.803Z,6.90
2019-02-20T13:03:01.592Z,6.63
2019-02-20T13:08:06.441Z,6.70
2019-02-20T13:13:11.182Z,4.80
2019-02-20T13:18:19.156Z,7.30
2019-02-20T13:23:24.037Z,7.43
2019-02-20T13:28:29.105Z,6.20
2019-02-20T13:33:34.050Z,5.57
2019-02-20T13:38:40.213Z,7.17
2019-02-20T13:48:49.565Z,6.20
2019-02-20T13:53:54.519Z,5.53
2019-02-20T13:58:59.435Z,6.10
2019-02-20T14:04:04.425Z,6.03
2019-02-20T14:09:09.774Z,4.80
2019-02-20T14:14:14.554Z,4.97
2019-02-20T14:19:19.445Z,3.70
2019-02-20T14:24:24.383Z,4.33
2019-02-20T14:29:29.316Z,4.10
2019-02-20T14:34:34.158Z,4.33
2019-02-20T14:39:39.034Z,3.73
2019-02-20T14:44:43.873Z,3.57
2019-02-20T14:49:49.060Z,4.27
2019-02-20T14:54:54.000Z,4.57
2019-02-20T14:59:59.016Z,5.27
2019-02-20T15:05:05.294Z,4.50
2019-02-20T15:10:10.664Z,5.23
2019-02-20T15:15:15.651Z,6.57
2019-02-20T15:20:20.754Z,7.40
2019-02-20T15:25:25.674Z,7.70
2019-02-20T15:30:30.065Z,7.50
2019-02-20T15:35:35.058Z,7.23
2019-02-20T15:40:40.112Z,6.57
2019-02-20T15:45:45.002Z,6.57
2019-02-20T15:50:49.445Z,7.43
2019-02-20T15:55:54.302Z,6.07
2019-02-20T16:00:59.316Z,5.40
2019-02-20T16:06:04.285Z,4.30
2019-02-20T16:11:09.203Z,5.70
2019-02-20T16:16:14.390Z,5.83
2019-02-20T16:21:19.396Z,5.67
2019-02-20T16:26:25.270Z,5.33
2019-02-20T16:31:30.707Z,5.07
2019-02-20T16:36:35.005Z,6.27
2019-02-20T16:41:39.225Z,5.13
2019-02-20T16:46:43.539Z,5.90
2019-02-20T16:51:48.235Z,6.17
2019-02-20T16:56:52.997Z,5.87
2019-02-20T17:01:57.853Z,4.80
2019-02-20T17:07:02.699Z,6.73
2019-02-20T17:12:08.606Z,6.97
2019-02-20T17:17:13.610Z,3.90
2019-02-20T17:22:18.430Z,6.70
2019-02-20T17:27:23.642Z,4.20
2019-02-20T17:32:28.579Z,4.90
2019-02-20T17:37:33.424Z,6.63
2019-02-20T17:42:38.264Z,5.40
2019-02-20T17:47:43.426Z,3.83
2019-02-20T17:52:48.333Z,7.07
2019-02-20T17:57:54.963Z,6.93
2019-02-20T18:02:59.961Z,5.17
2019-02-20T18:08:04.998Z,4.20
2019-02-20T18:13:10.096Z,3.83
2019-02-20T18:18:14.956Z,5.13
2019-02-20T18:23:21.843Z,10.00
2019-02-20T18:28:26.569Z,10.30
2019-02-20T18:33:31.517Z,5.80
2019-02-20T18:38:35.990Z,6.50
2019-02-20T18:43:49.786Z,9.33
2019-02-20T18:48:54.568Z,9.67
2019-02-20T18:53:58.813Z,10.60
2019-02-20T18:59:02.975Z,11.33
2019-02-20T19:04:08.093Z,11.10
2019-02-20T19:09:14.418Z,11.83
2019-02-20T19:14:37.753Z,10.80
2019-02-20T19:19:48.082Z,10.30
2019-02-20T19:25:08.122Z,10.90
2019-02-20T19:31:02.720Z,10.73
2019-02-20T19:36:20.132Z,7.57
2019-02-20T19:41:46.539Z,14.43
2019-02-20T19:47:07.406Z,11.00
2019-02-20T19:52:19.247Z,8.03
2019-02-20T19:57:41.203Z,8.20
2019-02-20T20:02:58.298Z,10.93
2019-02-20T20:08:10.511Z,10.33
2019-02-20T20:13:40.790Z,10.53
2019-02-20T20:19:04.288Z,11.13
2019-02-20T20:24:45.843Z,10.50
2019-02-20T20:30:09.297Z,11.07
2019-02-20T20:35:38.813Z,9.57
2019-02-20T20:40:54.564Z,8.33
2019-02-20T20:46:25.510Z,6.43
2019-02-20T20:51:40.676Z,10.03
2019-02-20T20:57:06.652Z,13.00
2019-02-20T21:02:15.700Z,10.03
2019-02-20T21:07:37.823Z,10.63
2019-02-20T21:13:02.004Z,11.33
2019-02-20T21:18:14.408Z,9.57
2019-02-20T21:24:01.650Z,10.80
2019-02-20T21:29:08.869Z,10.33
2019-02-20T21:34:25.025Z,10.60
2019-02-20T21:39:55.921Z,9.70
2019-02-20T21:45:39.321Z,10.97
2019-02-20T21:51:31.476Z,10.67
2019-02-20T21:57:14.742Z,8.13
2019-02-20T22:02:45.493Z,10.67
2019-02-20T22:08:19.104Z,11.73
2019-02-20T22:13:48.795Z,11.33
2019-02-20T22:19:10.775Z,11.10
2019-02-20T22:24:23.851Z,10.07
2019-02-20T22:30:02.782Z,9.77
2019-02-20T23:45:38.634Z,13.37
2019-02-20T23:50:43.238Z,13.70
2019-02-20T23:55:47.909Z,13.17
